Time;durP1;ratioP1;P1;durP2;ratioP2;P2;SDS_P1;SDS_P2;PMS_P1;PMS_P2;Temp;Humidity;BMP_temperature;BMP_pressure;BME280_temperature;BME280_humidity;BME280_pressure;Samples;Min_cycle;Max_cycle;Signal;HPM_P1;HPM_P2
2023/09/05 00:01:03;;;;;;;7.28;6.18;;;16.00;99.90;;;;;;2085919;28;20114;-70
2023/09/05 00:02:04;;;;;;;8.50;6.53;;;16.00;99.90;;;;;;2090275;28;20582;-85
2023/09/05 00:03:05;;;;;;;8.45;6.57;;;16.00;99.90;;;;;;2091635;28;20032;-85
2023/09/05 00:04:05;;;;;;;7.70;6.50;;;16.00;99.90;;;;;;2096362;28;20041;-85
2023/09/05 00:05:09;;;;;;;7.68;6.88;;;16.00;99.90;;;;;;2087218;28;20049;-84
2023/09/05 00:06:10;;;;;;;11.07;6.43;;;16.00;99.90;;;;;;2095782;28;20038;-85
2023/09/05 00:07:11;;;;;;;7.07;6.28;;;15.90;99.90;;;;;;2088598;28;20032;-85
2023/09/05 00:08:12;;;;;;;9.70;6.65;;;15.90;99.90;;;;;;2096214;28;20031;-84
2023/09/05 00:09:14;;;;;;;9.88;6.63;;;16.00;99.90;;;;;;2101094;28;20135;-84
2023/09/05 00:10:15;;;;;;;8.90;6.15;;;15.90;99.90;;;;;;2097871;28;20352;-84
2023/09/05 00:11:15;;;;;;;8.35;6.35;;;15.90;99.90;;;;;;2100483;28;20143;-84
2023/09/05 00:12:16;;;;;;;6.85;6.15;;;15.90;99.90;;;;;;2095713;28;20028;-75
2023/09/05 00:13:16;;;;;;;7.85;6.15;;;15.90;99.90;;;;;;2086629;28;20538;-74
2023/09/05 00:14:18;;;;;;;8.73;6.65;;;15.90;99.90;;;;;;2085461;28;20503;-75
2023/09/05 00:15:19;;;;;;;8.77;6.22;;;15.90;99.90;;;;;;2092443;28;20487;-74
2023/09/05 00:16:19;;;;;;;7.50;6.70;;;15.90;99.90;;;;;;2085811;28;20019;-76
2023/09/05 00:17:20;;;;;;;8.65;6.85;;;15.90;99.90;;;;;;2085221;28;20536;-76
2023/09/05 00:18:20;;;;;;;7.20;6.32;;;15.90;99.90;;;;;;2092160;28;20508;-75
2023/09/05 00:19:21;;;;;;;7.55;6.40;;;15.90;99.90;;;;;;2084301;28;20801;-76
2023/09/05 00:20:22;;;;;;;7.07;6.25;;;15.90;99.90;;;;;;2084601;28;20094;-75
2023/09/05 00:21:23;;;;;;;7.75;6.38;;;15.90;99.90;;;;;;2083906;28;20017;-75
2023/09/05 00:22:23;;;;;;;11.20;6.70;;;15.90;99.90;;;;;;2087932;28;20047;-76
2023/09/05 00:23:25;;;;;;;7.65;6.53;;;15.80;99.90;;;;;;2084066;28;20428;-75
2023/09/05 00:24:32;;;;;;;8.88;6.50;;;15.80;99.90;;;;;;2093672;28;20061;-75
2023/09/05 00:25:34;;;;;;;8.05;6.50;;;15.80;99.90;;;;;;2095995;28;20032;-74
2023/09/05 00:26:34;;;;;;;7.50;6.28;;;15.80;99.90;;;;;;2095586;28;20044;-74
2023/09/05 00:27:35;;;;;;;6.80;6.05;;;15.80;99.90;;;;;;2084737;28;20137;-73
2023/09/05 00:28:36;;;;;;;7.53;6.28;;;15.80;99.90;;;;;;2089183;28;20076;-75
2023/09/05 00:29:37;;;;;;;8.07;6.20;;;15.70;99.90;;;;;;2071405;28;20271;-75
2023/09/05 00:30:37;;;;;;;7.32;6.65;;;15.70;99.90;;;;;;2082601;28;20020;-76
2023/09/05 00:31:40;;;;;;;8.10;6.68;;;15.70;99.90;;;;;;2084341;28;20037;-75
2023/09/05 00:32:40;;;;;;;7.78;6.53;;;15.70;99.90;;;;;;2085568;28;20028;-76
2023/09/05 00:33:41;;;;;;;8.02;6.55;;;15.70;99.90;;;;;;2089802;28;20032;-75
2023/09/05 00:34:42;;;;;;;7.45;6.75;;;15.70;99.90;;;;;;2087416;28;20029;-76
2023/09/05 00:35:43;;;;;;;7.30;6.45;;;15.70;99.90;;;;;;2083166;28;20108;-76
2023/09/05 00:36:47;;;;;;;7.07;6.38;;;15.70;99.90;;;;;;2080076;28;20033;-76
2023/09/05 00:37:48;;;;;;;7.75;6.57;;;15.70;99.90;;;;;;2081218;28;20502;-76
2023/09/05 00:38:48;;;;;;;7.88;6.57;;;15.60;99.90;;;;;;2079275;28;20084;-75
2023/09/05 00:39:49;;;;;;;7.90;6.80;;;15.60;99.90;;;;;;2094819;28;20498;-74
2023/09/05 00:40:51;;;;;;;8.57;6.63;;;15.60;99.90;;;;;;2086926;28;20076;-76
2023/09/05 00:41:54;;;;;;;7.32;6.63;;;15.60;99.90;;;;;;2091520;28;20025;-74
2023/09/05 00:42:56;;;;;;;7.35;6.65;;;15.60;99.90;;;;;;2080711;28;20084;-74
2023/09/05 00:43:56;;;;;;;7.75;6.38;;;15.60;99.90;;;;;;2067268;28;20025;-74
2023/09/05 00:44:58;;;;;;;8.60;6.40;;;15.60;99.90;;;;;;2083642;28;20166;-75
2023/09/05 00:45:59;;;;;;;8.70;6.93;;;15.60;99.90;;;;;;2095954;28;20108;-75
2023/09/05 00:47:00;;;;;;;8.05;7.20;;;15.60;99.90;;;;;;2087856;28;20036;-73
2023/09/05 00:48:02;;;;;;;10.38;7.05;;;15.60;99.90;;;;;;2090416;28;20399;-76
2023/09/05 00:49:03;;;;;;;8.45;7.20;;;15.60;99.90;;;;;;2092064;28;20051;-74
2023/09/05 00:50:05;;;;;;;8.00;7.00;;;15.60;99.90;;;;;;2089806;28;20470;-74
2023/09/05 00:51:08;;;;;;;9.43;7.25;;;15.60;99.90;;;;;;2091413;28;20029;-73
2023/09/05 00:52:10;;;;;;;8.32;7.30;;;15.60;99.90;;;;;;2094990;28;20031;-74
2023/09/05 00:53:10;;;;;;;8.38;7.22;;;15.50;99.90;;;;;;2087298;28;20052;-75
2023/09/05 00:54:12;;;;;;;10.15;7.35;;;15.60;99.90;;;;;;2081511;28;20100;-75
2023/09/05 00:55:13;;;;;;;9.45;7.32;;;15.50;99.90;;;;;;2085238;28;20032;-75
2023/09/05 00:56:14;;;;;;;9.80;7.30;;;15.50;99.90;;;;;;2075567;28;20120;-75
2023/09/05 00:57:15;;;;;;;10.88;7.13;;;15.50;99.90;;;;;;2090495;28;20457;-74
2023/09/05 00:58:16;;;;;;;8.32;7.38;;;15.50;99.90;;;;;;2092926;28;20539;-75
2023/09/05 00:59:18;;;;;;;9.27;7.57;;;15.50;99.90;;;;;;2080962;28;20032;-75
2023/09/05 01:00:19;;;;;;;10.82;7.78;;;15.50;99.90;;;;;;2088277;28;20119;-74
2023/09/05 01:01:20;;;;;;;8.52;7.50;;;15.40;99.90;;;;;;2090925;28;20472;-75
2023/09/05 01:02:20;;;;;;;8.73;7.82;;;15.40;99.90;;;;;;2074812;28;20025;-75
2023/09/05 01:03:21;;;;;;;10.02;7.82;;;15.50;99.90;;;;;;2072119;28;20029;-73
2023/09/05 01:04:23;;;;;;;8.75;7.75;;;15.40;99.90;;;;;;2087479;28;20556;-74
2023/09/05 01:05:30;;;;;;;11.25;8.05;;;15.40;99.90;;;;;;2074680;28;20036;-75
2023/09/05 01:06:40;;;;;;;8.68;7.15;;;15.40;99.90;;;;;;2076643;28;20038;-74
2023/09/05 01:07:56;;;;;;;10.57;8.07;;;15.40;99.90;;;;;;2088165;28;20060;-75
2023/09/05 01:09:19;;;;;;;8.38;7.32;;;15.40;99.90;;;;;;2083587;28;20037;-75
2023/09/05 01:10:32;;;;;;;12.32;8.20;;;15.40;99.90;;;;;;2078378;28;20081;-74
2023/09/05 01:11:34;;;;;;;11.50;8.07;;;15.30;99.90;;;;;;2070846;28;20044;-75
2023/09/05 01:12:35;;;;;;;10.10;8.52;;;15.30;99.90;;;;;;2082695;28;20044;-76
2023/09/05 01:13:37;;;;;;;9.48;8.10;;;15.40;99.90;;;;;;2094502;28;20023;-75
2023/09/05 01:14:37;;;;;;;9.25;7.63;;;15.30;99.90;;;;;;2080162;28;20208;-76
2023/09/05 01:15:38;;;;;;;9.20;7.82;;;15.30;99.90;;;;;;2084483;28;20108;-75
2023/09/05 01:16:43;;;;;;;8.32;7.50;;;15.30;99.90;;;;;;2079246;28;20263;-75
2023/09/05 01:17:44;;;;;;;9.48;7.63;;;15.30;99.90;;;;;;2091517;28;20024;-74
2023/09/05 01:18:46;;;;;;;10.88;8.18;;;15.30;99.90;;;;;;2091488;28;20029;-74
2023/09/05 01:19:53;;;;;;;10.10;7.80;;;15.30;99.90;;;;;;2085047;28;20525;-74
2023/09/05 01:21:26;;;;;;;9.52;7.78;;;15.30;99.90;;;;;;2084052;28;20029;-76
2023/09/05 01:22:49;;;;;;;9.27;8.05;;;15.30;99.90;;;;;;2087159;28;20142;-76
2023/09/05 01:23:58;;;;;;;13.20;7.78;;;15.30;99.90;;;;;;2088805;28;20650;-73
2023/09/05 01:24:59;;;;;;;9.13;7.65;;;15.30;99.90;;;;;;2091118;28;20098;-73
2023/09/05 01:26:00;;;;;;;9.43;7.53;;;15.20;99.90;;;;;;2083855;28;20067;-74
2023/09/05 01:27:02;;;;;;;9.68;7.85;;;15.20;99.90;;;;;;2083113;28;20044;-74
2023/09/05 01:28:05;;;;;;;10.30;7.95;;;15.20;99.90;;;;;;2091471;28;20484;-75
2023/09/05 01:29:08;;;;;;;10.07;7.65;;;15.20;99.90;;;;;;2086827;28;20079;-75
2023/09/05 01:30:09;;;;;;;9.15;7.45;;;15.10;99.90;;;;;;2084479;28;20580;-76
2023/09/05 01:31:11;;;;;;;9.60;7.20;;;15.20;99.90;;;;;;2083186;28;20033;-74
2023/09/05 01:32:12;;;;;;;9.90;7.63;;;15.20;99.90;;;;;;2093054;28;20028;-75
2023/09/05 01:33:13;;;;;;;7.70;6.97;;;15.10;99.90;;;;;;2086555;28;20508;-75
2023/09/05 01:34:14;;;;;;;8.05;6.93;;;15.20;99.90;;;;;;2091219;28;20036;-75
2023/09/05 01:35:14;;;;;;;8.82;7.10;;;15.20;99.90;;;;;;2091137;28;20027;-75
2023/09/05 01:36:15;;;;;;;9.07;7.47;;;15.20;99.90;;;;;;2087395;28;20086;-75
2023/09/05 01:37:17;;;;;;;9.68;7.45;;;15.10;99.90;;;;;;2082510;28;20033;-76
2023/09/05 01:38:17;;;;;;;8.68;7.30;;;15.10;99.90;;;;;;2074404;28;20033;-75
2023/09/05 01:39:19;;;;;;;9.50;7.43;;;15.10;99.90;;;;;;2080364;28;20856;-76
2023/09/05 01:40:19;;;;;;;9.38;7.43;;;15.10;99.90;;;;;;2091863;28;20504;-74
2023/09/05 01:41:20;;;;;;;8.43;7.18;;;15.10;99.90;;;;;;2079183;28;20025;-74
2023/09/05 01:42:21;;;;;;;10.50;7.28;;;15.10;99.90;;;;;;2084330;28;20094;-74
2023/09/05 01:43:21;;;;;;;9.02;7.18;;;15.10;99.90;;;;;;2095303;28;20031;-74
2023/09/05 01:44:22;;;;;;;8.55;7.28;;;15.10;99.90;;;;;;2094515;28;20031;-75
2023/09/05 01:45:22;;;;;;;9.48;7.00;;;15.00;99.90;;;;;;2091238;28;20020;-76
2023/09/05 01:46:23;;;;;;;8.95;7.20;;;15.10;99.90;;;;;;2087642;28;20025;-76
2023/09/05 01:47:23;;;;;;;8.50;7.03;;;15.00;99.90;;;;;;2075930;28;20028;-76
2023/09/05 01:48:24;;;;;;;7.85;7.05;;;15.10;99.90;;;;;;2078194;28;20021;-77
2023/09/05 01:49:25;;;;;;;9.45;7.53;;;15.00;99.90;;;;;;2083962;28;20276;-76
2023/09/05 01:50:32;;;;;;;8.50;7.15;;;15.00;99.90;;;;;;2090401;28;20481;-75
2023/09/05 01:51:33;;;;;;;8.00;7.07;;;15.10;99.90;;;;;;2084380;28;20025;-75
2023/09/05 01:52:33;;;;;;;8.57;7.03;;;15.10;99.90;;;;;;2092870;28;20122;-75
2023/09/05 01:53:34;;;;;;;9.07;7.35;;;15.00;99.90;;;;;;2090202;28;20446;-75
2023/09/05 01:54:39;;;;;;;7.80;7.10;;;15.00;99.90;;;;;;2091243;28;20020;-77
2023/09/05 01:55:40;;;;;;;9.73;7.50;;;15.00;99.90;;;;;;2085234;28;20028;-74
2023/09/05 01:56:41;;;;;;;8.85;7.05;;;15.00;99.90;;;;;;2080005;28;20511;-75
2023/09/05 01:57:41;;;;;;;10.18;7.13;;;15.00;99.90;;;;;;2082666;28;20499;-75
2023/09/05 01:58:42;;;;;;;9.45;6.97;;;15.00;99.90;;;;;;2077778;28;20059;-76
2023/09/05 01:59:42;;;;;;;9.52;7.20;;;15.00;99.90;;;;;;2085766;28;20107;-74
2023/09/05 02:00:43;;;;;;;10.32;7.07;;;15.00;99.90;;;;;;2085425;28;20028;-74
2023/09/05 02:01:44;;;;;;;8.80;6.95;;;15.00;99.90;;;;;;2083060;28;20036;-73
2023/09/05 02:02:44;;;;;;;9.88;7.28;;;15.00;99.90;;;;;;2085547;28;20499;-73
2023/09/05 02:03:45;;;;;;;9.02;7.03;;;14.90;99.90;;;;;;2089538;28;20236;-74
2023/09/05 02:04:46;;;;;;;8.63;7.32;;;14.90;99.90;;;;;;2088044;28;20036;-74
2023/09/05 02:05:47;;;;;;;8.13;7.32;;;14.90;99.90;;;;;;2086664;28;20522;-73
2023/09/05 02:06:47;;;;;;;7.90;6.95;;;14.90;99.90;;;;;;2091647;28;20137;-75
2023/09/05 02:07:48;;;;;;;8.90;7.32;;;14.90;99.90;;;;;;2093486;28;20453;-75
2023/09/05 02:08:48;;;;;;;8.02;7.20;;;14.90;99.90;;;;;;2086536;28;20103;-75
2023/09/05 02:09:49;;;;;;;8.85;7.28;;;14.90;99.90;;;;;;2082668;28;20024;-75
2023/09/05 02:10:50;;;;;;;10.98;7.55;;;14.90;99.90;;;;;;2080151;28;21640;-75
2023/09/05 02:11:50;;;;;;;10.65;7.28;;;14.90;99.90;;;;;;2085659;28;20523;-74
2023/09/05 02:12:51;;;;;;;11.13;7.70;;;14.90;99.90;;;;;;2089370;28;20552;-74
2023/09/05 02:13:51;;;;;;;9.48;7.03;;;14.90;99.90;;;;;;2085995;28;20033;-75
2023/09/05 02:14:52;;;;;;;9.52;7.50;;;14.90;99.90;;;;;;2088761;28;20037;-74
2023/09/05 02:15:52;;;;;;;9.95;7.18;;;14.90;99.90;;;;;;2091386;28;20036;-75
2023/09/05 02:16:54;;;;;;;10.95;7.47;;;14.90;99.90;;;;;;2090675;28;20025;-74
2023/09/05 02:17:55;;;;;;;8.88;7.30;;;14.90;99.90;;;;;;2085056;28;20530;-75
2023/09/05 02:19:01;;;;;;;9.57;7.18;;;14.90;99.90;;;;;;2079531;28;20494;-75
2023/09/05 02:20:03;;;;;;;8.27;7.40;;;14.90;99.90;;;;;;2090715;28;20048;-75
2023/09/05 02:21:04;;;;;;;9.07;7.28;;;14.90;99.90;;;;;;2091138;28;20035;-75
2023/09/05 02:22:05;;;;;;;8.20;7.15;;;14.90;99.90;;;;;;2084786;28;20024;-75
2023/09/05 02:23:09;;;;;;;8.10;7.30;;;14.90;99.90;;;;;;2090422;28;20059;-75
2023/09/05 02:24:09;;;;;;;8.90;7.18;;;14.80;99.90;;;;;;2091541;28;20028;-74
2023/09/05 02:25:11;;;;;;;9.48;7.18;;;14.80;99.90;;;;;;2079871;28;20029;-76
2023/09/05 02:26:13;;;;;;;7.90;7.07;;;14.90;99.90;;;;;;2090025;28;20040;-75
2023/09/05 02:27:15;;;;;;;10.07;7.50;;;14.90;99.90;;;;;;2091500;28;20020;-74
2023/09/05 02:28:16;;;;;;;9.95;7.90;;;14.80;99.90;;;;;;2086919;28;20028;-74
2023/09/05 02:29:16;;;;;;;9.63;7.40;;;14.80;99.90;;;;;;2087313;28;20029;-73
2023/09/05 02:30:17;;;;;;;10.07;7.53;;;14.80;99.90;;;;;;2093319;28;20032;-73
2023/09/05 02:31:18;;;;;;;8.98;7.43;;;14.80;99.90;;;;;;2082645;28;20084;-74
2023/09/05 02:32:18;;;;;;;8.55;7.38;;;14.80;99.90;;;;;;2075988;28;20033;-76
2023/09/05 02:33:19;;;;;;;7.88;7.10;;;14.80;99.90;;;;;;2095229;28;20707;-73
2023/09/05 02:34:22;;;;;;;10.50;7.80;;;14.80;99.90;;;;;;2090397;28;20032;-73
2023/09/05 02:35:24;;;;;;;9.10;7.30;;;14.80;99.90;;;;;;2088783;28;20025;-73
2023/09/05 02:36:24;;;;;;;8.95;7.30;;;14.70;99.90;;;;;;2091104;28;20046;-74
2023/09/05 02:37:26;;;;;;;8.30;7.25;;;14.70;99.90;;;;;;2094221;28;20089;-74
2023/09/05 02:38:26;;;;;;;9.95;7.35;;;14.70;99.90;;;;;;2090701;28;20115;-73
2023/09/05 02:39:27;;;;;;;8.05;7.25;;;14.70;99.90;;;;;;2083108;28;20309;-74
2023/09/05 02:40:28;;;;;;;8.80;7.28;;;14.70;99.90;;;;;;2070100;28;20022;-74
2023/09/05 02:41:28;;;;;;;8.00;7.20;;;14.70;99.90;;;;;;2086323;28;20398;-75
2023/09/05 02:42:29;;;;;;;8.43;7.13;;;14.70;99.90;;;;;;2083717;28;20063;-75
2023/09/05 02:43:30;;;;;;;8.60;7.43;;;14.70;99.90;;;;;;2090804;28;20104;-74
2023/09/05 02:44:31;;;;;;;9.45;7.32;;;14.70;99.90;;;;;;2090556;28;20055;-74
2023/09/05 02:45:31;;;;;;;9.93;7.47;;;14.70;99.90;;;;;;2087261;28;20042;-74
2023/09/05 02:46:33;;;;;;;8.32;7.43;;;14.70;99.90;;;;;;2095721;28;20024;-73
2023/09/05 02:47:33;;;;;;;10.27;7.50;;;14.60;99.90;;;;;;2083061;28;20083;-74
2023/09/05 02:48:39;;;;;;;9.45;7.38;;;14.70;99.90;;;;;;2081985;28;20683;-75
2023/09/05 02:49:39;;;;;;;9.85;7.22;;;14.70;99.90;;;;;;2090798;28;20111;-75
2023/09/05 02:50:40;;;;;;;8.55;7.60;;;14.60;99.90;;;;;;2084353;28;20466;-74
2023/09/05 02:51:41;;;;;;;9.40;7.32;;;14.60;99.90;;;;;;2080299;28;20018;-76
2023/09/05 02:52:41;;;;;;;9.10;7.80;;;14.60;99.90;;;;;;2073636;28;20511;-74
2023/09/05 02:53:42;;;;;;;8.68;7.60;;;14.60;99.90;;;;;;2072640;28;20033;-74
2023/09/05 02:54:42;;;;;;;8.77;7.72;;;14.60;99.90;;;;;;2084991;28;20095;-73
2023/09/05 02:55:44;;;;;;;9.63;7.57;;;14.60;99.90;;;;;;2100435;28;20020;-73
2023/09/05 02:56:45;;;;;;;10.30;7.63;;;14.60;99.90;;;;;;2083949;28;20502;-73
2023/09/05 02:57:46;;;;;;;9.20;7.32;;;14.60;99.90;;;;;;2081162;28;20029;-74
2023/09/05 02:58:48;;;;;;;8.32;7.40;;;14.60;99.90;;;;;;2092857;28;20024;-74
2023/09/05 02:59:53;;;;;;;8.38;7.30;;;14.60;99.90;;;;;;2082706;28;20036;-74
2023/09/05 03:01:01;;;;;;;9.63;7.22;;;14.60;99.90;;;;;;2088053;28;20385;-72
2023/09/05 03:02:03;;;;;;;9.32;7.53;;;14.60;99.90;;;;;;2088199;28;20033;-74
2023/09/05 03:03:04;;;;;;;9.23;7.57;;;14.60;99.90;;;;;;2080712;28;20692;-73
2023/09/05 03:04:05;;;;;;;8.82;7.18;;;14.60;99.90;;;;;;2090418;28;20036;-74
2023/09/05 03:05:06;;;;;;;12.38;7.88;;;14.60;99.90;;;;;;2090401;28;20024;-74
2023/09/05 03:06:11;;;;;;;9.48;7.70;;;14.60;99.90;;;;;;2075467;28;20030;-75
2023/09/05 03:07:12;;;;;;;9.80;7.57;;;14.60;99.90;;;;;;2076573;28;20301;-75
2023/09/05 03:08:13;;;;;;;9.25;7.95;;;14.60;99.90;;;;;;2077140;28;20022;-75
2023/09/05 03:09:13;;;;;;;9.52;7.70;;;14.60;99.90;;;;;;2085435;28;20033;-73
2023/09/05 03:10:15;;;;;;;9.05;7.97;;;14.60;99.90;;;;;;2087924;28;20553;-73
2023/09/05 03:11:17;;;;;;;9.43;7.32;;;14.60;99.90;;;;;;2090773;28;20127;-74
2023/09/05 03:12:17;;;;;;;11.07;7.63;;;14.60;99.90;;;;;;2082408;28;20032;-74
2023/09/05 03:13:19;;;;;;;8.60;7.22;;;14.60;99.90;;;;;;2088830;28;20097;-74
2023/09/05 03:14:19;;;;;;;8.63;7.72;;;14.50;99.90;;;;;;2094573;28;20024;-75
2023/09/05 03:15:20;;;;;;;8.35;7.45;;;14.60;99.90;;;;;;2088761;28;20033;-75
2023/09/05 03:16:23;;;;;;;8.52;7.63;;;14.60;99.90;;;;;;2088096;28;20039;-74
2023/09/05 03:17:24;;;;;;;9.05;7.78;;;14.50;99.90;;;;;;2077666;28;20029;-76
2023/09/05 03:18:25;;;;;;;9.13;7.75;;;14.50;99.90;;;;;;2087741;28;20120;-74
2023/09/05 03:19:26;;;;;;;10.73;7.68;;;14.50;99.90;;;;;;2081811;28;20441;-73
2023/09/05 03:20:26;;;;;;;8.13;7.30;;;14.50;99.90;;;;;;2082793;28;20029;-73
2023/09/05 03:21:27;;;;;;;7.32;6.65;;;14.50;99.90;;;;;;2093239;28;20525;-73
2023/09/05 03:22:29;;;;;;;10.55;7.45;;;14.50;99.90;;;;;;2074865;28;20467;-74
2023/09/05 03:23:30;;;;;;;8.23;7.38;;;14.50;99.90;;;;;;2086767;28;20081;-75
2023/09/05 03:24:31;;;;;;;10.43;7.80;;;14.50;99.90;;;;;;2092642;28;20477;-74
2023/09/05 03:25:31;;;;;;;8.35;7.47;;;14.50;99.90;;;;;;2088196;28;20500;-74
2023/09/05 03:26:32;;;;;;;10.60;7.78;;;14.50;99.90;;;;;;2093771;28;20045;-74
2023/09/05 03:27:33;;;;;;;8.55;7.55;;;14.50;99.90;;;;;;2096176;28;20101;-74
2023/09/05 03:28:53;;;;;;;9.32;7.70;;;14.50;99.90;;;;;;2080192;28;20087;-69
2023/09/05 03:29:55;;;;;;;8.27;7.47;;;14.50;99.90;;;;;;2086919;28;20035;-72
2023/09/05 03:30:56;;;;;;;9.35;7.70;;;14.50;99.90;;;;;;2077268;28;20336;-72
2023/09/05 03:31:56;;;;;;;9.13;7.35;;;14.40;99.90;;;;;;2086970;28;20037;-75
2023/09/05 03:32:57;;;;;;;8.80;7.07;;;14.40;99.90;;;;;;2087308;28;20438;-75
2023/09/05 03:33:58;;;;;;;9.82;7.60;;;14.40;99.90;;;;;;2084802;28;20044;-75
2023/09/05 03:34:58;;;;;;;9.77;7.35;;;14.40;99.90;;;;;;2085005;28;20120;-75
2023/09/05 03:35:59;;;;;;;9.73;7.15;;;14.40;99.90;;;;;;2091445;28;20534;-75
2023/09/05 03:37:00;;;;;;;8.05;7.25;;;14.40;99.90;;;;;;2095724;28;20024;-76
2023/09/05 03:38:01;;;;;;;8.30;7.20;;;14.40;99.90;;;;;;2085721;28;20399;-73
2023/09/05 03:39:02;;;;;;;9.13;7.32;;;14.40;99.90;;;;;;2092154;28;20438;-74
2023/09/05 03:40:04;;;;;;;9.27;7.35;;;14.40;99.90;;;;;;2083363;28;20033;-73
2023/09/05 03:41:04;;;;;;;8.15;7.35;;;14.40;99.90;;;;;;2079658;28;20606;-73
2023/09/05 03:42:05;;;;;;;8.10;7.30;;;14.40;99.90;;;;;;2083499;28;20145;-74
2023/09/05 03:43:06;;;;;;;7.93;7.05;;;14.40;99.90;;;;;;2087280;28;20458;-74
2023/09/05 03:44:07;;;;;;;8.15;6.93;;;14.30;99.90;;;;;;2084384;28;20037;-74
2023/09/05 03:45:08;;;;;;;7.32;6.63;;;14.30;99.90;;;;;;2088029;28;20021;-74
2023/09/05 03:46:09;;;;;;;8.57;7.03;;;14.30;99.90;;;;;;2092036;28;20025;-74
2023/09/05 03:47:09;;;;;;;7.82;6.55;;;14.30;99.90;;;;;;2091985;28;20035;-74
2023/09/05 03:48:10;;;;;;;8.57;6.95;;;14.30;99.90;;;;;;2085406;28;20043;-74
2023/09/05 03:49:11;;;;;;;8.50;7.43;;;14.30;99.90;;;;;;2091600;28;20029;-73
2023/09/05 03:50:13;;;;;;;9.90;7.45;;;14.30;99.90;;;;;;2084392;28;20025;-73
2023/09/05 03:51:13;;;;;;;9.93;7.70;;;14.40;99.90;;;;;;2077112;28;20116;-74
2023/09/05 03:52:14;;;;;;;9.82;8.13;;;14.40;99.90;;;;;;2092335;28;20503;-74
2023/09/05 03:53:15;;;;;;;8.07;7.22;;;14.40;99.90;;;;;;2092146;28;20033;-74
2023/09/05 03:54:17;;;;;;;10.75;8.00;;;14.40;99.90;;;;;;2092016;28;20051;-73
2023/09/05 03:55:18;;;;;;;9.95;7.50;;;14.40;99.90;;;;;;2082306;28;20025;-74
2023/09/05 03:56:18;;;;;;;8.52;7.03;;;14.30;99.90;;;;;;2085717;28;20567;-73
2023/09/05 03:57:19;;;;;;;10.95;7.25;;;14.30;99.90;;;;;;2083522;28;20029;-74
2023/09/05 03:58:20;;;;;;;8.20;7.15;;;14.30;99.90;;;;;;2083956;28;20067;-75
2023/09/05 03:59:20;;;;;;;8.80;7.38;;;14.30;99.90;;;;;;2094280;28;20111;-75
2023/09/05 04:00:21;;;;;;;10.20;7.20;;;14.30;99.90;;;;;;2088632;28;20132;-75
2023/09/05 04:01:21;;;;;;;8.55;7.00;;;14.30;99.90;;;;;;2093631;28;20255;-74
2023/09/05 04:02:22;;;;;;;9.70;6.93;;;14.30;99.90;;;;;;2084953;28;20491;-74
2023/09/05 04:03:23;;;;;;;8.38;7.20;;;14.40;99.90;;;;;;2082975;28;20133;-75
2023/09/05 04:04:24;;;;;;;8.38;7.32;;;14.30;99.90;;;;;;2086975;28;20033;-72
2023/09/05 04:05:25;;;;;;;11.02;7.35;;;14.30;99.90;;;;;;2091257;28;20032;-73
2023/09/05 04:06:25;;;;;;;10.07;7.32;;;14.30;99.90;;;;;;2088862;28;20134;-74
2023/09/05 04:07:26;;;;;;;9.38;7.55;;;14.40;99.90;;;;;;2086233;28;20555;-74
2023/09/05 04:08:27;;;;;;;9.73;6.90;;;14.40;99.90;;;;;;2091470;28;20028;-74
2023/09/05 04:09:27;;;;;;;7.57;6.88;;;14.30;99.90;;;;;;2089822;28;20554;-73
2023/09/05 04:10:28;;;;;;;8.75;7.20;;;14.30;99.90;;;;;;2080812;28;20088;-73
2023/09/05 04:11:29;;;;;;;8.35;7.50;;;14.30;99.90;;;;;;2093109;28;20109;-71
2023/09/05 04:12:32;;;;;;;10.05;7.43;;;14.30;99.90;;;;;;2090833;28;20640;-71
2023/09/05 04:13:33;;;;;;;8.85;7.25;;;14.30;99.90;;;;;;2088477;28;20036;-70
2023/09/05 04:14:34;;;;;;;9.63;7.50;;;14.30;99.90;;;;;;2095394;28;20028;-71
2023/09/05 04:15:36;;;;;;;9.20;7.40;;;14.30;99.90;;;;;;2087557;28;20020;-71
2023/09/05 04:16:38;;;;;;;8.52;7.18;;;14.30;99.90;;;;;;2084173;28;20020;-71
2023/09/05 04:17:40;;;;;;;11.85;7.57;;;14.30;99.90;;;;;;2091086;28;20029;-71
2023/09/05 04:18:40;;;;;;;26.40;8.45;;;14.30;99.90;;;;;;2092243;28;20028;-72
2023/09/05 04:19:41;;;;;;;11.80;7.32;;;14.30;99.90;;;;;;2092575;28;20028;-71
2023/09/05 04:20:42;;;;;;;10.00;7.35;;;14.30;99.90;;;;;;2089769;28;20086;-72
2023/09/05 04:21:43;;;;;;;10.02;7.80;;;14.30;99.90;;;;;;2091032;28;20383;-71
2023/09/05 04:22:45;;;;;;;11.75;7.70;;;14.30;99.90;;;;;;2093690;28;20415;-72
2023/09/05 04:23:45;;;;;;;10.13;7.25;;;14.30;99.90;;;;;;2089358;28;20029;-71
2023/09/05 04:24:50;;;;;;;8.02;7.20;;;14.30;99.90;;;;;;2088805;28;20731;-72
2023/09/05 04:26:01;;;;;;;7.88;6.65;;;14.30;99.90;;;;;;2083641;28;20423;-71
2023/09/05 04:27:03;;;;;;;8.68;7.18;;;14.30;99.90;;;;;;2076362;28;20156;-71
2023/09/05 04:28:04;;;;;;;8.82;7.13;;;14.30;99.90;;;;;;2074283;28;20538;-71
2023/09/05 04:29:05;;;;;;;8.13;7.20;;;14.30;99.90;;;;;;2075042;28;20304;-70
2023/09/05 04:30:06;;;;;;;7.75;6.93;;;14.30;99.90;;;;;;2083434;28;20107;-71
2023/09/05 04:31:07;;;;;;;10.13;6.90;;;14.30;99.90;;;;;;2099398;28;20035;-72
2023/09/05 04:32:08;;;;;;;8.93;7.18;;;14.30;99.90;;;;;;2088049;28;20396;-71
2023/09/05 04:33:11;;;;;;;9.60;7.32;;;14.30;99.90;;;;;;2091604;28;20016;-70
2023/09/05 04:34:11;;;;;;;10.15;7.28;;;14.30;99.90;;;;;;2087238;28;20980;-71
2023/09/05 04:35:12;;;;;;;9.85;7.20;;;14.30;99.90;;;;;;2076632;28;20076;-70
2023/09/05 04:36:12;;;;;;;8.77;7.45;;;14.30;99.90;;;;;;2090519;28;20124;-71
2023/09/05 04:37:17;;;;;;;10.80;7.75;;;14.30;99.90;;;;;;2092444;28;20028;-70
2023/09/05 04:38:18;;;;;;;9.65;7.53;;;14.30;99.90;;;;;;2086555;28;20689;-70
2023/09/05 04:39:18;;;;;;;10.68;7.30;;;14.30;99.90;;;;;;2094634;28;20028;-71
2023/09/05 04:40:19;;;;;;;9.82;7.53;;;14.30;99.90;;;;;;2094909;28;20044;-71
2023/09/05 04:41:20;;;;;;;9.50;7.90;;;14.30;99.90;;;;;;2089191;28;20021;-71
2023/09/05 04:42:22;;;;;;;10.35;7.90;;;14.30;99.90;;;;;;2087880;28;20518;-71
2023/09/05 04:43:22;;;;;;;10.25;8.07;;;14.30;99.90;;;;;;2083393;28;20024;-71
2023/09/05 04:44:23;;;;;;;9.50;7.70;;;14.30;99.90;;;;;;2089412;28;20588;-71
2023/09/05 04:45:24;;;;;;;11.00;7.80;;;14.30;99.90;;;;;;2091677;28;20449;-71
2023/09/05 04:46:24;;;;;;;11.60;8.85;;;14.40;99.90;;;;;;2094057;28;20226;-71
2023/09/05 04:47:27;;;;;;;11.88;8.88;;;14.40;99.90;;;;;;2089119;28;20043;-71
2023/09/05 04:48:28;;;;;;;12.25;8.77;;;14.40;99.90;;;;;;2089581;28;20119;-71
2023/09/05 04:49:28;;;;;;;9.65;8.20;;;14.40;99.90;;;;;;2093667;28;20531;-71
2023/09/05 04:50:29;;;;;;;11.15;7.90;;;14.40;99.90;;;;;;2089937;28;20097;-71
2023/09/05 04:51:30;;;;;;;11.23;8.05;;;14.40;99.90;;;;;;2089272;28;20031;-70
2023/09/05 04:52:31;;;;;;;11.73;8.15;;;14.40;99.90;;;;;;2086655;28;20021;-71
2023/09/05 04:53:31;;;;;;;11.05;7.97;;;14.40;99.90;;;;;;2085825;28;20024;-71
2023/09/05 04:54:32;;;;;;;11.27;7.90;;;14.40;99.90;;;;;;2093266;28;20482;-70
2023/09/05 04:55:33;;;;;;;9.30;7.93;;;14.40;99.90;;;;;;2085637;28;20103;-70
2023/09/05 04:56:33;;;;;;;9.77;7.82;;;14.50;99.90;;;;;;2092132;28;20032;-71
2023/09/05 04:57:34;;;;;;;9.20;7.68;;;14.50;99.90;;;;;;2091086;28;20078;-72
2023/09/05 04:58:35;;;;;;;10.25;7.85;;;14.40;99.90;;;;;;2088632;28;20119;-71
2023/09/05 04:59:35;;;;;;;10.45;7.40;;;14.50;99.90;;;;;;2092423;28;20492;-71
2023/09/05 05:00:36;;;;;;;10.27;7.68;;;14.50;99.90;;;;;;2095308;28;20460;-70
2023/09/05 05:01:36;;;;;;;9.68;7.75;;;14.50;99.90;;;;;;2084039;28;20543;-70
2023/09/05 05:02:37;;;;;;;11.68;7.93;;;14.60;99.90;;;;;;2093403;28;20143;-70
2023/09/05 05:03:38;;;;;;;11.52;7.70;;;14.60;99.90;;;;;;2088488;28;20102;-70
2023/09/05 05:04:40;;;;;;;10.30;7.43;;;14.80;99.90;;;;;;2084673;28;20032;-70
2023/09/05 05:05:41;;;;;;;11.80;7.15;;;14.90;99.90;;;;;;2092176;28;20052;-71
2023/09/05 05:06:42;;;;;;;11.55;6.80;;;15.10;99.90;;;;;;2091690;28;20558;-70
2023/09/05 05:07:42;;;;;;;9.77;6.78;;;15.30;99.90;;;;;;2088830;28;20037;-71
2023/09/05 05:08:43;;;;;;;8.13;7.00;;;15.50;99.90;;;;;;2091011;28;20310;-71
2023/09/05 05:09:45;;;;;;;9.32;6.40;;;15.70;99.90;;;;;;2091323;28;20036;-71
2023/09/05 05:10:45;;;;;;;8.68;6.45;;;16.00;99.90;;;;;;2079394;28;20080;-71
2023/09/05 05:11:46;;;;;;;9.55;6.35;;;16.20;99.90;;;;;;2090983;28;20083;-71
2023/09/05 05:12:47;;;;;;;9.70;6.30;;;16.40;99.90;;;;;;2090026;28;20025;-71
2023/09/05 05:13:47;;;;;;;15.57;6.70;;;16.60;99.90;;;;;;2094221;28;20032;-71
2023/09/05 05:14:48;;;;;;;9.15;6.32;;;16.90;99.90;;;;;;2084705;28;20029;-71
2023/09/05 05:15:48;;;;;;;10.63;6.60;;;17.00;99.90;;;;;;2089269;28;20146;-71
2023/09/05 05:16:49;;;;;;;8.15;6.20;;;17.20;99.90;;;;;;2091072;28;20024;-71
2023/09/05 05:17:50;;;;;;;11.32;6.22;;;17.40;99.90;;;;;;2090327;28;20112;-71
2023/09/05 05:18:50;;;;;;;9.23;6.00;;;17.50;99.90;;;;;;2091503;28;20021;-72
2023/09/05 05:19:51;;;;;;;9.45;6.28;;;17.70;99.90;;;;;;2093509;28;20154;-71
2023/09/05 05:20:51;;;;;;;9.65;6.35;;;17.90;99.90;;;;;;2085910;28;20389;-71